createdAt,value
2023-05-11T00:00:20.805Z,8.41
2023-05-11T00:02:51.728Z,8.38
2023-05-11T00:05:21.330Z,8.37
2023-05-11T00:07:50.825Z,8.35
2023-05-11T00:10:20.784Z,8.39
2023-05-11T00:12:50.282Z,8.35
2023-05-11T00:15:19.721Z,8.33
2023-05-11T00:17:49.206Z,8.33
2023-05-11T00:20:21.486Z,8.34
2023-05-11T05:02:00.788Z,7.67
2023-05-11T05:04:30.346Z,7.65
2023-05-11T05:06:59.870Z,7.65
2023-05-11T05:09:29.352Z,7.63
2023-05-11T05:11:58.785Z,7.59
2023-05-11T05:14:28.321Z,7.56
2023-05-11T05:16:57.852Z,7.59
2023-05-11T05:19:28.683Z,7.60
2023-05-11T05:22:34.405Z,7.62
2023-05-11T05:25:06.276Z,7.69
2023-05-11T05:27:35.969Z,7.62
2023-05-11T05:30:10.413Z,7.62
2023-05-11T05:32:39.935Z,7.68
2023-05-11T05:35:11.325Z,7.66
2023-05-11T05:37:40.913Z,7.70
2023-05-11T05:40:11.814Z,7.60
2023-05-11T05:42:49.204Z,7.68
2023-05-11T05:45:23.248Z,7.71
2023-05-11T05:47:54.421Z,7.71
2023-05-11T05:50:26.132Z,7.74
2023-05-11T05:52:55.708Z,7.71
2023-05-11T05:55:28.022Z,7.72
2023-05-11T05:57:59.355Z,7.75
2023-05-11T06:00:28.821Z,7.73
2023-05-11T06:03:05.980Z,7.71
2023-05-11T06:05:36.893Z,7.72
2023-05-11T06:08:10.986Z,7.74
2023-05-11T06:10:41.857Z,7.75
2023-05-11T06:13:13.190Z,7.77
2023-05-11T06:15:44.504Z,7.77
2023-05-11T06:18:33.924Z,7.81
2023-05-11T06:21:07.166Z,7.79
2023-05-11T06:23:36.646Z,7.79
2023-05-11T06:26:06.357Z,7.80
2023-05-11T06:28:36.403Z,7.84
2023-05-11T06:31:10.013Z,7.82
2023-05-11T06:33:42.410Z,7.87
2023-05-11T06:36:21.435Z,7.91
2023-05-11T06:38:51.258Z,7.86
2023-05-11T06:41:21.404Z,7.82
2023-05-11T06:43:51.055Z,7.87
2023-05-11T06:46:23.655Z,7.86
2023-05-11T06:48:53.171Z,7.91
2023-05-11T06:51:24.191Z,7.89
2023-05-11T06:53:53.707Z,7.89
2023-05-11T06:56:23.130Z,7.90
2023-05-11T06:58:52.605Z,7.91
2023-05-11T07:01:22.045Z,7.91
2023-05-11T07:03:54.744Z,7.93
2023-05-11T07:06:25.744Z,7.97
2023-05-11T07:08:55.244Z,8.03
2023-05-11T07:11:25.469Z,8.10
2023-05-11T07:13:54.952Z,8.07
2023-05-11T07:16:24.526Z,8.12
2023-05-11T07:18:54.219Z,8.10
2023-05-11T07:21:25.030Z,8.12
2023-05-11T07:23:54.481Z,8.18
2023-05-11T07:26:24.005Z,8.18
2023-05-11T07:28:53.489Z,8.12
2023-05-11T07:31:23.115Z,8.13
2023-05-11T07:33:53.287Z,8.17
2023-05-11T07:36:22.789Z,8.23
2023-05-11T07:38:53.590Z,8.23
2023-05-11T07:41:26.644Z,8.22
2023-05-11T07:43:56.175Z,8.29
2023-05-11T07:46:25.754Z,8.30
2023-05-11T07:49:07.201Z,8.25
2023-05-11T07:51:45.244Z,8.32
2023-05-11T07:54:16.081Z,8.35
2023-05-11T07:56:45.636Z,8.38
2023-05-11T07:59:15.078Z,8.36
2023-05-11T08:01:44.579Z,8.38
2023-05-11T08:04:14.046Z,8.37
2023-05-11T08:06:43.582Z,8.36
2023-05-11T08:09:12.986Z,8.35
2023-05-11T08:11:43.840Z,8.37
